createdAt,value
2018-08-31T00:00:46.988Z,5.97
2018-08-31T00:03:20.625Z,7.50
2018-08-31T00:06:00.294Z,5.13
2018-08-31T00:08:39.382Z,5.43
2018-08-31T00:11:33.840Z,3.83
2018-08-31T00:14:02.158Z,4.73
2018-08-31T00:16:30.460Z,5.80
2018-08-31T00:18:58.746Z,7.50
2018-08-31T00:21:27.044Z,7.90
2018-08-31T00:24:06.641Z,5.53
2018-08-31T00:26:46.350Z,6.20
2018-08-31T00:29:34.811Z,3.57
2018-08-31T00:34:17.802Z,5.40
2018-08-31T00:38:00.309Z,6.07
2018-08-31T00:41:11.642Z,5.60
2018-08-31T00:43:55.900Z,4.93
2018-08-31T00:46:24.823Z,8.83
2018-08-31T00:48:53.141Z,5.37
2018-08-31T00:51:21.446Z,5.97
2018-08-31T00:53:49.726Z,5.80
2018-08-31T00:56:18.046Z,4.87
2018-08-31T00:58:46.313Z,6.90
2018-08-31T01:01:14.619Z,4.57
2018-08-31T01:03:42.945Z,7.00
2018-08-31T01:06:11.260Z,5.80
2018-08-31T01:08:39.559Z,5.20
2018-08-31T01:11:07.864Z,6.00
2018-08-31T01:13:37.330Z,4.63
2018-08-31T01:16:06.066Z,8.30
2018-08-31T01:18:34.724Z,4.93
2018-08-31T01:21:03.014Z,7.13
2018-08-31T01:23:31.307Z,4.07
2018-08-31T01:25:59.719Z,5.30
2018-08-31T01:28:28.035Z,4.07
2018-08-31T01:30:56.370Z,4.80
2018-08-31T01:33:24.656Z,5.27
2018-08-31T01:35:52.931Z,5.07
2018-08-31T01:38:21.204Z,4.33
2018-08-31T01:40:49.487Z,6.10
2018-08-31T01:43:17.823Z,7.40
2018-08-31T01:45:46.331Z,9.17
2018-08-31T01:48:14.637Z,5.03
2018-08-31T01:50:48.389Z,4.73
2018-08-31T01:53:16.986Z,5.40
2018-08-31T01:55:45.312Z,4.80
2018-08-31T01:58:13.591Z,7.13
2018-08-31T02:00:41.885Z,6.00
2018-08-31T02:03:10.171Z,7.77
2018-08-31T02:05:38.489Z,4.83
2018-08-31T02:08:06.988Z,4.77
2018-08-31T02:10:35.271Z,7.13
2018-08-31T02:13:03.585Z,4.63
2018-08-31T02:15:31.893Z,8.60
2018-08-31T02:18:00.205Z,5.23
2018-08-31T02:20:28.524Z,7.90
2018-08-31T02:22:56.856Z,8.90
2018-08-31T02:25:25.111Z,8.77
2018-08-31T02:27:53.374Z,6.57
2018-08-31T02:30:21.667Z,6.87
2018-08-31T02:32:50.041Z,6.97
2018-08-31T02:35:18.343Z,8.40
2018-08-31T02:37:46.640Z,9.30
2018-08-31T02:40:15.008Z,7.07
2018-08-31T02:42:43.312Z,5.73
2018-08-31T02:45:11.816Z,7.83
2018-08-31T02:47:40.451Z,8.10
2018-08-31T02:50:08.767Z,7.10
2018-08-31T02:52:37.053Z,8.77
2018-08-31T02:55:05.351Z,8.87
2018-08-31T02:57:33.640Z,5.53
2018-08-31T03:00:01.908Z,11.23
2018-08-31T03:02:30.558Z,7.57
2018-08-31T03:04:58.844Z,7.37
2018-08-31T03:07:27.166Z,5.60
2018-08-31T03:09:55.535Z,10.53
2018-08-31T03:12:23.859Z,9.50
2018-08-31T03:14:52.175Z,8.73
2018-08-31T03:17:20.488Z,9.30
2018-08-31T03:19:48.798Z,10.00
2018-08-31T03:22:17.155Z,8.10
2018-08-31T03:24:45.910Z,7.70
2018-08-31T03:27:14.195Z,6.77
2018-08-31T03:29:42.518Z,9.63
2018-08-31T03:32:10.805Z,5.73
2018-08-31T03:34:39.445Z,7.80
2018-08-31T03:37:07.911Z,8.93
2018-08-31T03:39:36.348Z,8.37
2018-08-31T03:42:04.649Z,7.17
2018-08-31T03:44:32.966Z,6.63
2018-08-31T03:47:01.291Z,7.37
2018-08-31T03:49:29.574Z,6.07
2018-08-31T03:51:57.874Z,6.53
2018-08-31T03:54:26.169Z,8.80
2018-08-31T03:56:54.510Z,8.40
2018-08-31T03:59:22.837Z,5.00
2018-08-31T04:01:51.159Z,8.80
2018-08-31T04:04:19.434Z,7.50
2018-08-31T04:06:47.743Z,8.83
2018-08-31T04:09:16.012Z,7.73
2018-08-31T04:11:44.825Z,8.13
2018-08-31T04:14:13.092Z,6.93
2018-08-31T04:16:41.401Z,7.80
2018-08-31T04:19:13.953Z,7.97
2018-08-31T04:21:42.404Z,6.20
2018-08-31T04:24:11.275Z,6.23
2018-08-31T04:26:39.598Z,6.90
2018-08-31T04:29:08.027Z,8.37
2018-08-31T04:31:36.315Z,6.37
2018-08-31T04:34:04.658Z,6.67
2018-08-31T04:36:33.212Z,4.90
2018-08-31T04:39:01.677Z,9.33
2018-08-31T04:41:30.020Z,7.33
2018-08-31T04:43:58.307Z,8.00
2018-08-31T04:46:26.597Z,7.43
2018-08-31T04:48:54.881Z,8.30
2018-08-31T04:51:23.150Z,6.73
2018-08-31T04:53:51.513Z,8.47
2018-08-31T04:56:19.808Z,9.47
2018-08-31T04:58:48.240Z,8.83
2018-08-31T05:01:17.056Z,10.33
2018-08-31T05:03:45.738Z,8.60
2018-08-31T05:06:14.037Z,8.43
2018-08-31T05:08:42.577Z,6.03
2018-08-31T05:11:11.213Z,11.13
2018-08-31T05:13:39.852Z,9.33
2018-08-31T05:16:08.208Z,8.60
2018-08-31T05:18:36.628Z,8.93
2018-08-31T05:21:05.333Z,8.13
2018-08-31T05:23:33.679Z,8.63
2018-08-31T05:26:02.085Z,6.57
2018-08-31T05:28:30.424Z,9.10
2018-08-31T05:30:58.878Z,8.03
2018-08-31T05:33:27.222Z,8.13
2018-08-31T05:35:55.516Z,7.07
2018-08-31T05:38:23.852Z,8.40
2018-08-31T05:40:52.398Z,8.20
2018-08-31T05:43:20.704Z,7.13
2018-08-31T05:45:49.068Z,7.87
2018-08-31T05:48:17.371Z,6.77
2018-08-31T05:50:45.672Z,6.10
2018-08-31T05:53:13.978Z,6.37
2018-08-31T05:55:42.711Z,6.17
2018-08-31T05:58:11.006Z,9.73
2018-08-31T06:00:39.293Z,8.63
2018-08-31T06:03:07.616Z,8.60
2018-08-31T06:05:35.968Z,6.90
2018-08-31T06:08:04.294Z,8.50
2018-08-31T06:10:32.714Z,8.73
2018-08-31T06:13:01.220Z,8.33
2018-08-31T06:15:29.551Z,7.80
2018-08-31T06:17:57.927Z,9.00
2018-08-31T06:20:26.257Z,7.80
2018-08-31T06:22:54.539Z,8.73
2018-08-31T06:25:22.848Z,8.07
2018-08-31T06:27:51.596Z,8.67
2018-08-31T06:30:19.877Z,7.17
2018-08-31T06:32:48.258Z,10.23
2018-08-31T06:35:17.229Z,8.73
2018-08-31T06:37:45.672Z,11.23
2018-08-31T06:40:14.020Z,11.00
2018-08-31T06:42:42.364Z,9.30
2018-08-31T06:45:11.991Z,9.97
2018-08-31T06:47:40.301Z,9.77
2018-08-31T06:50:08.673Z,14.50
2018-08-31T06:52:37.014Z,9.50
2018-08-31T06:55:05.400Z,11.23
2018-08-31T06:57:33.876Z,8.53
2018-08-31T07:00:02.177Z,11.10
2018-08-31T07:02:30.518Z,9.20
2018-08-31T07:04:58.856Z,10.13
2018-08-31T07:07:27.680Z,9.70
2018-08-31T07:09:55.937Z,12.07
2018-08-31T07:12:24.297Z,6.53
2018-08-31T07:14:52.717Z,9.20
2018-08-31T07:17:21.030Z,7.87
2018-08-31T07:19:49.413Z,9.33
2018-08-31T07:22:17.897Z,8.13
2018-08-31T07:24:46.413Z,6.80
2018-08-31T07:27:14.724Z,5.90
2018-08-31T07:29:43.036Z,7.40
2018-08-31T07:32:11.515Z,7.60
2018-08-31T07:34:40.307Z,5.83
2018-08-31T07:37:08.655Z,7.73
2018-08-31T07:39:36.987Z,6.33
2018-08-31T07:42:05.687Z,6.87
2018-08-31T07:44:34.145Z,7.37
2018-08-31T07:47:02.512Z,10.60
2018-08-31T07:49:30.818Z,6.47
2018-08-31T07:51:59.140Z,7.53
2018-08-31T07:54:27.540Z,6.50
2018-08-31T07:57:07.894Z,4.70
2018-08-31T07:59:36.318Z,4.07
2018-08-31T08:02:04.946Z,4.93
2018-08-31T08:04:33.281Z,6.07
2018-08-31T08:07:01.642Z,4.77
2018-08-31T08:09:29.990Z,5.30
2018-08-31T08:11:58.316Z,6.30
2018-08-31T08:14:26.658Z,5.37
2018-08-31T08:16:55.020Z,7.17
2018-08-31T08:19:23.899Z,5.87
2018-08-31T08:21:53.043Z,4.55
2018-08-31T08:24:21.925Z,4.15
2018-08-31T08:26:50.833Z,4.58
2018-08-31T08:29:19.769Z,4.37
2018-08-31T08:31:48.647Z,5.03
2018-08-31T08:34:17.574Z,5.05
2018-08-31T08:36:46.494Z,4.83
2018-08-31T08:39:15.408Z,4.08
2018-08-31T08:41:44.657Z,5.03
2018-08-31T08:44:13.555Z,5.62
2018-08-31T08:46:42.464Z,4.58
2018-08-31T08:49:11.371Z,4.55
2018-08-31T08:51:40.289Z,4.33
2018-08-31T08:54:09.130Z,6.20
2018-08-31T08:56:37.988Z,5.87
2018-08-31T08:59:06.884Z,4.95
2018-08-31T09:01:35.436Z,4.03
2018-08-31T09:04:11.423Z,4.78
2018-08-31T09:06:40.673Z,4.12
2018-08-31T09:09:10.253Z,4.62
2018-08-31T09:11:39.369Z,2.47
2018-08-31T09:14:08.508Z,3.92
2018-08-31T09:16:37.508Z,2.62
2018-08-31T09:19:06.368Z,4.25
2018-08-31T09:21:35.570Z,5.03
2018-08-31T09:24:04.411Z,4.97
2018-08-31T09:26:33.818Z,3.65
2018-08-31T09:29:02.692Z,3.58
2018-08-31T09:31:34.617Z,4.62
2018-08-31T09:34:03.464Z,4.75
2018-08-31T09:36:32.617Z,3.22
2018-08-31T09:39:01.457Z,4.05
2018-08-31T09:41:30.343Z,2.92
2018-08-31T09:43:59.287Z,5.83
2018-08-31T09:46:28.280Z,5.08
2018-08-31T09:48:57.178Z,3.52
2018-08-31T09:51:26.022Z,2.80
2018-08-31T09:53:54.879Z,3.80
2018-08-31T09:56:24.065Z,4.40
2018-08-31T09:58:53.229Z,3.30
2018-08-31T10:01:27.099Z,2.20
2018-08-31T10:03:55.919Z,3.92
2018-08-31T10:06:24.826Z,6.45
2018-08-31T10:08:53.732Z,2.67
2018-08-31T10:11:22.646Z,3.25
2018-08-31T10:13:51.558Z,5.12
2018-08-31T10:16:20.463Z,4.67
2018-08-31T10:18:49.390Z,5.72
2018-08-31T10:21:18.416Z,2.52
2018-08-31T10:23:47.382Z,2.02
2018-08-31T10:26:16.413Z,5.60
2018-08-31T10:28:45.449Z,4.75
2018-08-31T10:31:14.351Z,3.83
2018-08-31T10:33:43.413Z,4.53
2018-08-31T10:36:12.371Z,4.00
2018-08-31T10:38:41.252Z,4.40
2018-08-31T10:41:10.230Z,6.03
2018-08-31T10:43:39.142Z,2.62
2018-08-31T10:46:08.054Z,3.75
2018-08-31T10:48:37.012Z,3.17
2018-08-31T10:51:06.194Z,3.60
2018-08-31T10:53:35.095Z,4.65
2018-08-31T10:56:03.973Z,4.00
2018-08-31T10:58:32.978Z,5.22
2018-08-31T11:01:01.962Z,2.87
2018-08-31T11:03:30.861Z,5.10
2018-08-31T11:05:59.777Z,6.17
2018-08-31T11:08:28.970Z,5.37
2018-08-31T11:10:57.972Z,4.20
2018-08-31T11:13:26.865Z,6.00
2018-08-31T11:15:55.761Z,4.78
2018-08-31T11:18:24.647Z,3.58
2018-08-31T11:20:53.548Z,4.65
2018-08-31T11:23:22.427Z,4.35
2018-08-31T11:25:51.317Z,3.87
2018-08-31T11:28:20.220Z,4.97
2018-08-31T11:30:49.129Z,7.20
2018-08-31T11:33:19.703Z,9.38
2018-08-31T11:35:49.034Z,5.53
2018-08-31T11:38:17.917Z,5.22
2018-08-31T11:40:46.941Z,4.12
2018-08-31T11:43:15.863Z,5.00
2018-08-31T11:45:44.908Z,5.55
2018-08-31T11:48:13.782Z,5.55
2018-08-31T11:50:42.667Z,4.45
2018-08-31T11:53:33.536Z,5.45
2018-08-31T11:56:02.415Z,4.45
2018-08-31T11:58:31.311Z,5.67
2018-08-31T12:00:59.876Z,4.07
2018-08-31T12:03:28.966Z,4.67
2018-08-31T12:05:57.843Z,4.17
2018-08-31T12:08:26.792Z,4.08
2018-08-31T12:10:55.962Z,5.30
2018-08-31T12:13:25.201Z,4.67
2018-08-31T12:15:54.189Z,4.90
2018-08-31T12:18:23.135Z,4.53
2018-08-31T12:20:52.063Z,3.87
2018-08-31T12:23:21.029Z,4.65
2018-08-31T12:25:49.980Z,4.37
2018-08-31T12:28:18.866Z,5.03
2018-08-31T12:30:47.760Z,3.95
2018-08-31T12:33:16.725Z,5.72
2018-08-31T12:35:45.606Z,5.55
2018-08-31T12:38:14.752Z,4.40
2018-08-31T12:40:43.663Z,4.08
2018-08-31T12:43:12.744Z,6.80
2018-08-31T12:45:41.627Z,3.02
2018-08-31T12:48:10.624Z,3.52
2018-08-31T12:50:39.505Z,3.72
2018-08-31T12:53:08.399Z,3.02
2018-08-31T12:55:37.323Z,3.45
2018-08-31T12:58:07.968Z,4.35
2018-08-31T13:00:36.855Z,3.60
2018-08-31T13:03:05.792Z,3.43
2018-08-31T13:05:34.692Z,4.08
2018-08-31T13:08:03.617Z,3.20
2018-08-31T13:10:32.514Z,5.58
2018-08-31T13:13:01.793Z,4.20
2018-08-31T13:15:31.057Z,4.67
2018-08-31T13:18:00.178Z,4.35
2018-08-31T13:20:29.112Z,4.47
2018-08-31T13:22:58.070Z,12.18
2018-08-31T13:25:26.982Z,3.65
2018-08-31T13:27:55.879Z,5.45
2018-08-31T13:30:24.811Z,3.95
2018-08-31T13:32:53.714Z,2.60
2018-08-31T13:35:22.550Z,3.72
2018-08-31T13:37:51.800Z,3.67
2018-08-31T13:40:20.898Z,3.40
2018-08-31T13:42:49.754Z,4.35
2018-08-31T13:45:18.648Z,3.22
2018-08-31T13:47:47.523Z,5.60
2018-08-31T13:50:16.385Z,3.85
2018-08-31T13:52:45.360Z,3.42
2018-08-31T13:55:14.503Z,5.00
2018-08-31T13:57:43.430Z,4.87
2018-08-31T14:00:12.300Z,4.47
2018-08-31T14:02:40.890Z,5.50
2018-08-31T14:05:10.074Z,4.05
2018-08-31T14:07:38.940Z,4.33
2018-08-31T14:10:07.870Z,2.95
2018-08-31T14:12:36.774Z,4.33
2018-08-31T14:15:05.945Z,4.92
2018-08-31T14:17:34.817Z,5.03
2018-08-31T14:20:03.943Z,3.10
2018-08-31T14:22:32.838Z,3.15
2018-08-31T14:25:01.721Z,5.65
2018-08-31T14:27:30.629Z,5.17
2018-08-31T14:30:00.064Z,5.28
2018-08-31T14:32:28.951Z,2.25
2018-08-31T14:34:57.862Z,3.75
2018-08-31T14:37:26.760Z,4.70
2018-08-31T14:39:55.596Z,4.25
2018-08-31T14:42:24.478Z,4.10
2018-08-31T14:44:53.379Z,3.25
2018-08-31T14:47:22.546Z,4.45
2018-08-31T14:49:51.492Z,2.70
2018-08-31T14:52:20.469Z,4.37
2018-08-31T14:54:49.394Z,3.33
2018-08-31T14:57:18.291Z,2.60
2018-08-31T14:59:47.164Z,3.10
2018-08-31T15:02:15.771Z,3.83
2018-08-31T15:04:44.670Z,4.05
2018-08-31T15:07:13.521Z,4.80
2018-08-31T15:09:42.479Z,3.15
2018-08-31T15:12:11.525Z,3.98
2018-08-31T15:14:40.651Z,4.95
2018-08-31T15:17:09.527Z,3.35
2018-08-31T15:19:38.137Z,3.17
2018-08-31T15:22:07.128Z,3.67
2018-08-31T15:24:35.820Z,4.07
2018-08-31T15:27:04.611Z,5.80
2018-08-31T15:29:33.521Z,6.53
2018-08-31T15:32:02.221Z,4.30
2018-08-31T15:34:31.145Z,2.77
2018-08-31T15:36:59.828Z,3.60
2018-08-31T15:39:28.508Z,4.10
2018-08-31T15:41:57.167Z,2.90
2018-08-31T15:44:26.002Z,3.13
2018-08-31T15:46:54.646Z,2.10
2018-08-31T15:49:23.292Z,3.60
2018-08-31T15:51:51.940Z,3.47
2018-08-31T15:54:20.517Z,5.33
2018-08-31T15:56:49.105Z,5.03
2018-08-31T15:59:17.723Z,3.17
2018-08-31T16:01:46.308Z,3.20
2018-08-31T16:04:14.924Z,4.80
2018-08-31T16:06:43.533Z,7.03
2018-08-31T16:09:12.206Z,2.70
2018-08-31T16:11:40.919Z,2.77
2018-08-31T16:14:09.534Z,4.03
2018-08-31T16:16:38.118Z,4.60
2018-08-31T16:19:07.127Z,2.40
2018-08-31T16:21:35.898Z,2.43
2018-08-31T16:24:04.851Z,2.13
2018-08-31T16:26:33.523Z,3.53
2018-08-31T16:29:02.144Z,4.20
2018-08-31T16:31:30.909Z,3.90
2018-08-31T16:33:59.482Z,3.20
2018-08-31T16:36:28.080Z,4.00
2018-08-31T16:38:56.772Z,2.97
2018-08-31T16:41:25.470Z,3.23
2018-08-31T16:43:54.067Z,3.77
2018-08-31T16:46:22.714Z,3.00
2018-08-31T16:48:51.429Z,3.17
2018-08-31T16:51:20.419Z,4.12
2018-08-31T16:53:53.178Z,3.92
2018-08-31T16:56:22.056Z,4.58
2018-08-31T16:58:51.938Z,3.30
2018-08-31T17:01:20.531Z,3.43
2018-08-31T17:03:49.458Z,3.65
2018-08-31T17:06:18.679Z,4.03
2018-08-31T17:08:47.590Z,3.33
2018-08-31T17:11:16.464Z,3.92
2018-08-31T17:13:45.356Z,3.15
2018-08-31T17:16:14.366Z,2.65
2018-08-31T17:18:43.255Z,4.03
2018-08-31T17:21:12.203Z,3.17
2018-08-31T17:23:41.099Z,2.65
2018-08-31T17:26:14.479Z,4.72
2018-08-31T17:28:49.040Z,3.00
2018-08-31T17:31:23.141Z,1.75
2018-08-31T17:33:57.501Z,5.25
2018-08-31T17:36:32.725Z,2.33
2018-08-31T17:39:02.056Z,2.83
2018-08-31T17:41:31.948Z,4.12
2018-08-31T17:44:00.876Z,4.35
2018-08-31T17:46:29.929Z,3.30
2018-08-31T17:48:59.417Z,4.95
2018-08-31T17:51:28.307Z,3.65
2018-08-31T17:53:57.313Z,4.72
2018-08-31T17:56:28.796Z,3.50
2018-08-31T17:58:58.481Z,3.12
2018-08-31T18:01:27.451Z,3.90
2018-08-31T18:03:56.416Z,4.47
2018-08-31T18:06:25.522Z,5.12
2018-08-31T18:08:54.551Z,4.83
2018-08-31T18:11:23.496Z,2.65
2018-08-31T18:13:52.588Z,3.70
2018-08-31T18:16:21.487Z,4.15
2018-08-31T18:18:50.576Z,4.67
2018-08-31T18:21:19.690Z,3.47
2018-08-31T18:23:48.622Z,4.17
2018-08-31T18:26:17.698Z,4.58
2018-08-31T18:28:47.452Z,4.22
2018-08-31T18:31:16.407Z,5.00
2018-08-31T18:33:45.332Z,5.67
2018-08-31T18:36:14.382Z,2.37
2018-08-31T18:38:43.381Z,3.98
2018-08-31T18:41:12.386Z,3.30
2018-08-31T18:43:41.359Z,6.22
2018-08-31T18:46:10.279Z,3.98
2018-08-31T18:48:39.217Z,3.00
2018-08-31T18:51:08.146Z,4.05
2018-08-31T18:53:37.181Z,4.85
2018-08-31T18:56:06.117Z,5.37
2018-08-31T18:58:35.070Z,5.00
2018-08-31T19:01:03.434Z,2.92
2018-08-31T19:03:32.411Z,5.15
2018-08-31T19:06:01.404Z,5.83
2018-08-31T19:08:30.447Z,5.20
2018-08-31T19:10:59.394Z,5.62
2018-08-31T19:13:28.336Z,5.90
2018-08-31T19:15:57.412Z,3.87
2018-08-31T19:18:25.846Z,3.95
2018-08-31T19:20:54.441Z,3.70
2018-08-31T19:23:22.759Z,4.43
2018-08-31T19:25:51.689Z,5.35
2018-08-31T19:28:20.036Z,3.12
2018-08-31T19:30:48.336Z,4.10
2018-08-31T19:33:16.650Z,5.23
2018-08-31T19:35:44.993Z,4.30
2018-08-31T19:38:13.295Z,4.00
2018-08-31T19:40:41.699Z,4.70
2018-08-31T19:43:10.056Z,5.60
2018-08-31T19:45:38.455Z,6.57
2018-08-31T19:48:06.880Z,6.03
2018-08-31T19:50:35.749Z,6.07
2018-08-31T19:53:04.080Z,4.20
2018-08-31T19:55:32.447Z,5.93
2018-08-31T19:58:00.874Z,4.57
2018-08-31T20:00:29.215Z,7.30
2018-08-31T20:02:57.543Z,5.53
2018-08-31T20:05:26.615Z,6.03
2018-08-31T20:07:54.955Z,6.00
2018-08-31T20:10:23.320Z,4.60
2018-08-31T20:12:51.701Z,7.67
2018-08-31T20:15:20.115Z,4.87
2018-08-31T20:17:48.521Z,5.53
2018-08-31T20:20:17.103Z,5.77
2018-08-31T20:22:45.557Z,5.33
2018-08-31T20:25:13.918Z,7.13
2018-08-31T20:27:42.362Z,6.40
2018-08-31T20:30:10.722Z,6.17
2018-08-31T20:32:39.061Z,6.10
2018-08-31T20:35:07.476Z,6.43
2018-08-31T20:37:35.893Z,7.47
2018-08-31T20:40:04.798Z,6.40
2018-08-31T20:42:33.156Z,4.53
2018-08-31T20:45:01.604Z,6.23
2018-08-31T20:47:29.986Z,4.90
2018-08-31T20:49:58.379Z,5.47
2018-08-31T20:52:26.755Z,4.33
2018-08-31T20:54:55.136Z,7.70
2018-08-31T20:57:23.618Z,6.77
2018-08-31T20:59:52.001Z,8.70
2018-08-31T21:02:20.439Z,8.50
2018-08-31T21:04:48.984Z,8.77
2018-08-31T21:07:17.336Z,8.30
2018-08-31T21:09:45.754Z,8.77
2018-08-31T21:12:14.166Z,9.50
2018-08-31T21:14:42.494Z,7.53
2018-08-31T21:17:10.859Z,8.63
2018-08-31T21:19:39.210Z,7.27
2018-08-31T21:22:07.919Z,8.40
2018-08-31T21:24:36.581Z,8.07
2018-08-31T21:27:05.036Z,6.87
2018-08-31T21:29:33.414Z,5.70
2018-08-31T21:32:01.804Z,7.20
2018-08-31T21:34:30.381Z,6.07
2018-08-31T21:36:58.722Z,8.03
2018-08-31T21:39:27.046Z,8.47
2018-08-31T21:41:55.499Z,10.33
2018-08-31T21:44:24.102Z,7.37
2018-08-31T21:46:52.473Z,7.83
2018-08-31T21:49:20.813Z,9.00
2018-08-31T21:51:49.347Z,8.30
2018-08-31T21:54:17.992Z,6.77
2018-08-31T21:56:46.420Z,5.90
2018-08-31T21:59:14.778Z,7.17
2018-08-31T22:01:47.364Z,6.20
2018-08-31T22:04:15.668Z,8.70
2018-08-31T22:06:44.068Z,8.20
2018-08-31T22:09:12.416Z,6.37
2018-08-31T22:11:40.957Z,5.60
2018-08-31T22:14:09.451Z,5.90
2018-08-31T22:16:37.802Z,7.10
2018-08-31T22:19:06.270Z,10.27
2018-08-31T22:21:34.694Z,7.37
2018-08-31T22:24:03.028Z,6.23
2018-08-31T22:26:31.540Z,6.00
2018-08-31T22:28:59.981Z,5.90
2018-08-31T22:31:28.691Z,7.23
2018-08-31T22:33:57.089Z,5.57
2018-08-31T22:36:25.480Z,8.97
2018-08-31T22:38:54.398Z,8.03
2018-08-31T22:41:22.796Z,6.57
2018-08-31T22:43:52.762Z,5.33
2018-08-31T22:46:23.183Z,7.50
2018-08-31T22:48:52.082Z,7.77
2018-08-31T22:51:21.396Z,7.17
2018-08-31T22:53:50.198Z,5.60
2018-08-31T22:56:18.619Z,5.30
2018-08-31T22:58:47.009Z,6.17
2018-08-31T23:01:15.389Z,8.73
2018-08-31T23:03:43.900Z,6.73
2018-08-31T23:06:12.590Z,5.50
2018-08-31T23:08:40.989Z,6.10
2018-08-31T23:11:10.615Z,9.33
2018-08-31T23:13:40.964Z,7.07
2018-08-31T23:16:09.512Z,4.97
2018-08-31T23:18:38.268Z,5.93
2018-08-31T23:21:07.639Z,7.53
2018-08-31T23:23:41.915Z,5.80
2018-08-31T23:26:10.363Z,6.50
2018-08-31T23:28:38.767Z,8.53
2018-08-31T23:31:07.127Z,6.20
2018-08-31T23:33:35.457Z,8.47
2018-08-31T23:36:03.759Z,5.67
2018-08-31T23:38:32.429Z,9.23
2018-08-31T23:41:00.739Z,7.23
2018-08-31T23:43:29.091Z,10.17
2018-08-31T23:45:57.432Z,9.07
2018-08-31T23:48:25.746Z,10.40
2018-08-31T23:50:54.062Z,9.87
2018-08-31T23:53:22.401Z,10.50
2018-08-31T23:55:50.771Z,9.73
2018-08-31T23:58:19.092Z,6.27
